Time;durP1;ratioP1;P1;durP2;ratioP2;P2;SDS_P1;SDS_P2;PMS_P1;PMS_P2;Temp;Humidity;BMP_temperature;BMP_pressure;BME280_temperature;BME280_humidity;BME280_pressure;Samples;Min_cycle;Max_cycle;Signal;HPM_P1;HPM_P2
2022/06/09 00:01:06;;;;;;;18.52;7.88;;;;;;;;;;4984335;28;20213;-62
2022/06/09 00:03:33;;;;;;;24.17;8.30;;;;;;;;;;5006545;28;20668;-62
2022/06/09 00:05:58;;;;;;;111.25;11.95;;;;;;;;;;5003698;28;20228;-62
2022/06/09 00:08:24;;;;;;;16.92;7.38;;;;;;;;;;4983687;28;20225;-62
2022/06/09 00:10:51;;;;;;;18.20;7.88;;;;;;;;;;4983558;28;20213;-62
2022/06/09 00:13:17;;;;;;;17.05;6.93;;;;;;;;;;4984746;28;20221;-61
2022/06/09 00:15:42;;;;;;;20.70;8.30;;;;;;;;;;4980752;28;20217;-62
2022/06/09 00:18:07;;;;;;;19.50;7.15;;;;;;;;;;4976179;28;20712;-62
2022/06/09 00:20:32;;;;;;;18.08;7.20;;;;;;;;;;4976643;28;20217;-62
2022/06/09 00:22:58;;;;;;;17.70;7.18;;;;;;;;;;4972783;28;20209;-62
2022/06/09 00:25:24;;;;;;;18.40;7.30;;;;;;;;;;4982666;28;20217;-61
2022/06/09 00:27:49;;;;;;;18.20;6.93;;;;;;;;;;4984400;28;21168;-61
2022/06/09 00:30:14;;;;;;;14.55;7.65;;;;;;;;;;4986210;28;20216;-62
2022/06/09 00:32:40;;;;;;;34.70;8.35;;;;;;;;;;4995092;28;20224;-62
2022/06/09 00:35:06;;;;;;;17.73;7.45;;;;;;;;;;4991959;28;20247;-62
2022/06/09 00:37:32;;;;;;;14.60;7.00;;;;;;;;;;4996452;28;20224;-61
2022/06/09 00:39:59;;;;;;;18.90;7.35;;;;;;;;;;4980075;28;20213;-62
2022/06/09 00:42:24;;;;;;;28.48;7.97;;;;;;;;;;4975721;28;20209;-61
2022/06/09 00:44:49;;;;;;;20.13;7.35;;;;;;;;;;4978239;28;20221;-62
2022/06/09 00:47:20;;;;;;;18.40;6.70;;;;;;;;;;4983036;28;20331;-62
2022/06/09 00:49:55;;;;;;;18.27;6.43;;;;;;;;;;4986071;28;20252;-62
2022/06/09 00:52:21;;;;;;;21.30;7.57;;;;;;;;;;5001699;28;20733;-62
2022/06/09 00:54:47;;;;;;;26.38;7.18;;;;;;;;;;4992985;28;20225;-62
2022/06/09 00:57:14;;;;;;;19.95;6.70;;;;;;;;;;5000074;28;20225;-62
2022/06/09 00:59:40;;;;;;;16.17;7.47;;;;;;;;;;4989731;28;20217;-61
2022/06/09 01:02:06;;;;;;;20.00;6.70;;;;;;;;;;4976163;28;20213;-62
2022/06/09 01:04:32;;;;;;;20.05;7.60;;;;;;;;;;4995270;28;21395;-61
2022/06/09 01:06:58;;;;;;;15.82;6.93;;;;;;;;;;4975231;28;20217;-62
2022/06/09 01:09:24;;;;;;;16.05;6.65;;;;;;;;;;5010639;28;20271;-61
2022/06/09 01:11:50;;;;;;;20.30;6.72;;;;;;;;;;5001781;28;20258;-62
2022/06/09 01:14:16;;;;;;;12.77;6.72;;;;;;;;;;4981701;28;20561;-62
2022/06/09 01:16:43;;;;;;;19.50;6.88;;;;;;;;;;4983299;28;20256;-62
2022/06/09 01:19:09;;;;;;;18.13;6.68;;;;;;;;;;4986015;28;20276;-62
2022/06/09 01:21:41;;;;;;;18.60;6.15;;;;;;;;;;4990714;28;20600;-62
2022/06/09 01:24:19;;;;;;;18.13;6.80;;;;;;;;;;4994026;28;20214;-62
2022/06/09 01:26:52;;;;;;;20.83;6.30;;;;;;;;;;4991427;28;20220;-62
2022/06/09 01:29:26;;;;;;;13.73;5.20;;;;;;;;;;4999988;28;20311;-62
2022/06/09 01:31:59;;;;;;;12.50;5.45;;;;;;;;;;5005267;28;20209;-61
2022/06/09 01:34:30;;;;;;;17.08;5.30;;;;;;;;;;5002691;28;20236;-62
2022/06/09 01:36:58;;;;;;;18.20;6.07;;;;;;;;;;4985414;28;20312;-62
2022/06/09 01:39:30;;;;;;;16.52;6.45;;;;;;;;;;5006794;28;20224;-62
2022/06/09 01:41:55;;;;;;;16.60;5.50;;;;;;;;;;5000920;28;20263;-62
2022/06/09 01:44:20;;;;;;;16.05;5.55;;;;;;;;;;4990245;28;20262;-62
2022/06/09 01:46:47;;;;;;;14.57;6.13;;;;;;;;;;4979427;28;20332;-62
2022/06/09 01:49:13;;;;;;;16.30;6.25;;;;;;;;;;4978828;28;20252;-62
2022/06/09 01:51:41;;;;;;;14.18;5.78;;;;;;;;;;4993518;28;20282;-61
2022/06/09 01:54:09;;;;;;;19.67;6.38;;;;;;;;;;5013019;28;20212;-62
2022/06/09 01:56:39;;;;;;;16.08;5.60;;;;;;;;;;5007253;28;20220;-61
2022/06/09 01:59:07;;;;;;;19.30;6.03;;;;;;;;;;5000827;28;20306;-62
2022/06/09 02:01:33;;;;;;;19.33;6.20;;;;;;;;;;5000971;28;20216;-62
2022/06/09 02:03:59;;;;;;;18.95;6.68;;;;;;;;;;5016031;28;20306;-61
2022/06/09 02:06:24;;;;;;;26.77;6.10;;;;;;;;;;5015980;28;20303;-61
2022/06/09 02:08:50;;;;;;;20.75;6.25;;;;;;;;;;5013555;28;20457;-61
2022/06/09 02:11:15;;;;;;;24.33;6.10;;;;;;;;;;4992238;28;21116;-61
2022/06/09 02:13:41;;;;;;;16.20;5.72;;;;;;;;;;4977688;28;20220;-61
2022/06/09 02:16:07;;;;;;;19.52;6.70;;;;;;;;;;5009433;28;20290;-62
2022/06/09 02:18:37;;;;;;;21.77;6.35;;;;;;;;;;5014238;28;20216;-61
2022/06/09 02:21:04;;;;;;;14.27;5.72;;;;;;;;;;5001189;28;20220;-61
2022/06/09 02:23:29;;;;;;;19.27;6.40;;;;;;;;;;5004662;28;20205;-61
2022/06/09 02:25:55;;;;;;;23.60;6.78;;;;;;;;;;4993862;28;20220;-61
2022/06/09 02:28:20;;;;;;;19.42;6.88;;;;;;;;;;5000967;28;20239;-62
2022/06/09 02:30:45;;;;;;;17.35;6.70;;;;;;;;;;5000008;28;20278;-61
2022/06/09 02:33:11;;;;;;;19.30;6.50;;;;;;;;;;4993621;28;20220;-61
2022/06/09 02:35:37;;;;;;;21.15;6.88;;;;;;;;;;4975854;28;20240;-61
2022/06/09 02:38:02;;;;;;;18.27;6.07;;;;;;;;;;4991296;28;20271;-62
2022/06/09 02:40:28;;;;;;;19.65;6.60;;;;;;;;;;4996061;28;20243;-61
2022/06/09 02:42:53;;;;;;;19.10;6.22;;;;;;;;;;4984824;28;20213;-61
2022/06/09 02:45:19;;;;;;;19.67;6.53;;;;;;;;;;4987576;28;20314;-61
2022/06/09 02:47:44;;;;;;;20.95;6.97;;;;;;;;;;4987974;28;20233;-61
2022/06/09 02:50:09;;;;;;;19.17;7.15;;;;;;;;;;4981870;28;20213;-62
2022/06/09 02:52:35;;;;;;;21.65;6.65;;;;;;;;;;4981204;28;20702;-62
2022/06/09 02:55:00;;;;;;;15.00;6.03;;;;;;;;;;4976614;28;21173;-61
2022/06/09 02:57:25;;;;;;;17.30;6.68;;;;;;;;;;4973781;28;20287;-61
2022/06/09 02:59:51;;;;;;;22.77;7.22;;;;;;;;;;4976305;28;20220;-61
2022/06/09 03:02:17;;;;;;;22.67;7.28;;;;;;;;;;4992362;28;20224;-61
2022/06/09 03:04:42;;;;;;;17.65;6.55;;;;;;;;;;4999960;28;20782;-61
2022/06/09 03:07:07;;;;;;;19.45;6.53;;;;;;;;;;4981015;28;20636;-61
2022/06/09 03:09:33;;;;;;;21.55;7.32;;;;;;;;;;5000181;28;20217;-61
2022/06/09 03:11:58;;;;;;;19.42;6.57;;;;;;;;;;4999092;28;20282;-61
2022/06/09 03:14:23;;;;;;;19.23;6.45;;;;;;;;;;4989018;28;20240;-61
2022/06/09 03:16:48;;;;;;;15.30;6.70;;;;;;;;;;5001656;28;20213;-61
2022/06/09 03:19:14;;;;;;;14.93;6.30;;;;;;;;;;4995991;28;20224;-61
2022/06/09 03:21:39;;;;;;;14.93;6.72;;;;;;;;;;4996752;28;20247;-61
2022/06/09 03:24:04;;;;;;;16.30;6.63;;;;;;;;;;4982596;28;20227;-61
2022/06/09 03:26:30;;;;;;;22.13;5.88;;;;;;;;;;4984884;28;20268;-61
2022/06/09 03:28:55;;;;;;;25.40;7.40;;;;;;;;;;4984282;28;20232;-61
2022/06/09 03:31:20;;;;;;;18.80;6.63;;;;;;;;;;4993423;28;20209;-61
2022/06/09 03:33:46;;;;;;;19.15;6.43;;;;;;;;;;5003126;28;20219;-61
2022/06/09 03:36:11;;;;;;;19.40;6.63;;;;;;;;;;5003871;28;20227;-61
2022/06/09 03:38:40;;;;;;;22.55;7.30;;;;;;;;;;5003940;28;20363;-61
2022/06/09 03:41:05;;;;;;;25.95;7.60;;;;;;;;;;4978199;28;20216;-61
2022/06/09 03:43:30;;;;;;;20.02;7.65;;;;;;;;;;4978002;28;20754;-61
2022/06/09 03:45:56;;;;;;;33.58;6.90;;;;;;;;;;4977504;28;20774;-61
2022/06/09 03:48:22;;;;;;;32.85;6.55;;;;;;;;;;4983253;28;20668;-61
2022/06/09 03:50:47;;;;;;;18.58;6.53;;;;;;;;;;4985323;28;20244;-60
2022/06/09 03:53:12;;;;;;;42.63;6.80;;;;;;;;;;4983982;28;20209;-61
2022/06/09 03:55:38;;;;;;;21.73;6.10;;;;;;;;;;4984064;28;20225;-60
2022/06/09 03:58:03;;;;;;;28.60;6.60;;;;;;;;;;4986629;28;20244;-60
2022/06/09 04:00:29;;;;;;;24.65;6.88;;;;;;;;;;5003578;28;20745;-60
2022/06/09 04:02:54;;;;;;;28.50;6.80;;;;;;;;;;4993986;28;20225;-61
2022/06/09 04:05:20;;;;;;;18.17;6.05;;;;;;;;;;4976520;28;20263;-61
2022/06/09 04:07:45;;;;;;;18.92;5.93;;;;;;;;;;5002618;28;20233;-61
2022/06/09 04:10:13;;;;;;;18.40;5.70;;;;;;;;;;4992848;28;20592;-60
2022/06/09 04:12:38;;;;;;;40.53;6.50;;;;;;;;;;5011204;28;20308;-61
2022/06/09 04:15:05;;;;;;;46.35;7.00;;;;;;;;;;4984750;28;20299;-61
2022/06/09 04:17:30;;;;;;;24.38;6.40;;;;;;;;;;5002788;28;20228;-61
2022/06/09 04:19:56;;;;;;;23.42;6.20;;;;;;;;;;4994746;28;20284;-61
2022/06/09 04:22:21;;;;;;;27.05;6.20;;;;;;;;;;4988785;28;20254;-61
2022/06/09 04:24:46;;;;;;;26.45;6.07;;;;;;;;;;4974853;28;20336;-61
2022/06/09 04:27:12;;;;;;;24.65;6.53;;;;;;;;;;4982512;28;20939;-61
2022/06/09 04:29:37;;;;;;;80.03;9.38;;;;;;;;;;4990515;28;20251;-61
2022/06/09 04:32:03;;;;;;;22.10;5.75;;;;;;;;;;4986059;28;20221;-62
2022/06/09 04:34:29;;;;;;;36.08;5.75;;;;;;;;;;4984150;28;20213;-61
2022/06/09 04:36:54;;;;;;;39.25;6.30;;;;;;;;;;4996585;28;20220;-60
2022/06/09 04:39:19;;;;;;;48.95;6.53;;;;;;;;;;4983879;28;20213;-64
2022/06/09 04:41:45;;;;;;;19.02;5.38;;;;;;;;;;4983185;28;20213;-63
2022/06/09 04:44:10;;;;;;;24.90;5.40;;;;;;;;;;4994032;28;20262;-63
2022/06/09 04:46:35;;;;;;;22.40;5.68;;;;;;;;;;5002216;28;20613;-63
2022/06/09 04:49:01;;;;;;;24.42;5.10;;;;;;;;;;4995862;28;20798;-64
2022/06/09 04:51:26;;;;;;;20.33;5.28;;;;;;;;;;4995244;28;20219;-64
2022/06/09 04:53:51;;;;;;;15.93;5.40;;;;;;;;;;4995942;28;20333;-64
2022/06/09 04:56:17;;;;;;;17.88;4.72;;;;;;;;;;5008602;28;20212;-63
2022/06/09 04:58:42;;;;;;;18.92;4.20;;;;;;;;;;5006984;28;20224;-63
2022/06/09 05:01:17;;;;;;;14.80;4.13;;;;;;;;;;5011837;28;20239;-61
2022/06/09 05:03:43;;;;;;;17.60;3.60;;;;;;;;;;5009756;28;20295;-61
2022/06/09 05:06:08;;;;;;;157.43;10.57;;;;;;;;;;5010696;28;20291;-60
2022/06/09 05:08:34;;;;;;;80.00;6.95;;;;;;;;;;5011685;28;20232;-61
2022/06/09 05:10:59;;;;;;;18.08;3.60;;;;;;;;;;5011685;28;20280;-61
2022/06/09 05:13:25;;;;;;;21.25;3.38;;;;;;;;;;5009758;28;20212;-61
2022/06/09 05:15:53;;;;;;;16.23;3.92;;;;;;;;;;5006038;28;20258;-60
2022/06/09 05:18:20;;;;;;;9.90;3.35;;;;;;;;;;5001595;28;20219;-70
2022/06/09 05:20:46;;;;;;;20.55;3.55;;;;;;;;;;5000346;28;20211;-72
2022/06/09 05:23:11;;;;;;;31.50;4.93;;;;;;;;;;5004174;28;20208;-69
2022/06/09 05:25:36;;;;;;;12.55;3.33;;;;;;;;;;5001964;28;20211;-74
2022/06/09 05:28:02;;;;;;;19.73;3.05;;;;;;;;;;5000744;28;20683;-72
2022/06/09 05:30:27;;;;;;;15.65;2.97;;;;;;;;;;5005381;28;20295;-69
2022/06/09 05:32:52;;;;;;;20.60;3.00;;;;;;;;;;5001917;28;20200;-68
2022/06/09 05:35:18;;;;;;;28.65;2.90;;;;;;;;;;5001219;28;20220;-69
2022/06/09 05:45:55;;;;;;;17.77;2.85;;;;;;;;;;5010245;28;20243;-70
2022/06/09 05:48:21;;;;;;;16.73;2.97;;;;;;;;;;5009939;28;20216;-72
2022/06/09 05:50:47;;;;;;;22.52;3.28;;;;;;;;;;5011195;28;20217;-73
2022/06/09 05:53:12;;;;;;;13.93;2.60;;;;;;;;;;5010554;28;20642;-69
2022/06/09 05:55:37;;;;;;;20.63;4.07;;;;;;;;;;5012440;28;20218;-71
2022/06/09 05:58:03;;;;;;;35.97;3.35;;;;;;;;;;5012969;28;20282;-68
2022/06/09 06:00:28;;;;;;;13.35;2.58;;;;;;;;;;5010233;28;20635;-70
2022/06/09 06:02:53;;;;;;;15.20;2.60;;;;;;;;;;5010058;28;20770;-70
2022/06/09 06:08:03;;;;;;;19.83;2.42;;;;;;;;;;5008782;28;20306;-68
2022/06/09 06:10:28;;;;;;;10.40;2.20;;;;;;;;;;5010076;28;20672;-75
2022/06/09 06:12:54;;;;;;;10.88;2.75;;;;;;;;;;5011718;28;20627;-74
2022/06/09 06:15:19;;;;;;;17.48;2.30;;;;;;;;;;5010644;28;20212;-73
2022/06/09 06:17:44;;;;;;;10.07;2.47;;;;;;;;;;5010903;28;20219;-73
2022/06/09 06:20:10;;;;;;;9.85;2.08;;;;;;;;;;5010507;28;20263;-72
2022/06/09 06:22:35;;;;;;;7.82;2.17;;;;;;;;;;5010911;28;20668;-70
2022/06/09 06:25:02;;;;;;;11.23;1.98;;;;;;;;;;5011165;28;20675;-66
2022/06/09 06:27:28;;;;;;;12.65;2.13;;;;;;;;;;5011340;28;20218;-69
2022/06/09 06:29:54;;;;;;;10.27;1.88;;;;;;;;;;5010500;28;20299;-67
2022/06/09 06:32:19;;;;;;;39.85;3.65;;;;;;;;;;5009546;28;20304;-60
2022/06/09 06:34:44;;;;;;;6.97;1.90;;;;;;;;;;5010972;28;20222;-59
2022/06/09 06:37:09;;;;;;;11.10;1.90;;;;;;;;;;5010053;28;20641;-60
2022/06/09 06:39:35;;;;;;;12.90;1.77;;;;;;;;;;5011588;28;20212;-60
2022/06/09 06:42:00;;;;;;;9.68;2.20;;;;;;;;;;5011058;28;20216;-62
2022/06/09 06:44:25;;;;;;;11.20;2.25;;;;;;;;;;4998535;28;20208;-61
2022/06/09 06:46:51;;;;;;;10.15;1.92;;;;;;;;;;4995773;28;20244;-62
2022/06/09 06:49:16;;;;;;;19.15;2.28;;;;;;;;;;5013939;28;20750;-62
2022/06/09 06:51:41;;;;;;;12.80;1.92;;;;;;;;;;5014269;28;20204;-62
2022/06/09 06:54:07;;;;;;;10.63;1.80;;;;;;;;;;5014652;28;20220;-61
2022/06/09 06:56:33;;;;;;;10.70;2.33;;;;;;;;;;5014838;28;20221;-62
2022/06/09 06:58:58;;;;;;;7.38;1.70;;;;;;;;;;5014069;28;20236;-62
2022/06/09 07:01:24;;;;;;;8.57;1.40;;;;;;;;;;5012744;28;20235;-61
2022/06/09 07:03:49;;;;;;;9.85;1.90;;;;;;;;;;5013361;28;20204;-62
2022/06/09 07:06:14;;;;;;;17.45;1.83;;;;;;;;;;5013307;28;20275;-63
2022/06/09 07:08:40;;;;;;;9.27;2.22;;;;;;;;;;5014647;28;20224;-62
2022/06/09 07:11:05;;;;;;;7.25;1.20;;;;;;;;;;4997627;28;20213;-62
2022/06/09 07:13:31;;;;;;;9.05;1.50;;;;;;;;;;4994579;28;20217;-62
2022/06/09 07:15:56;;;;;;;15.05;2.75;;;;;;;;;;5002177;28;20219;-62
2022/06/09 07:18:21;;;;;;;11.20;1.55;;;;;;;;;;5014064;28;20227;-62
2022/06/09 07:20:46;;;;;;;7.95;1.70;;;;;;;;;;5013453;28;20299;-62
2022/06/09 07:23:12;;;;;;;10.52;1.70;;;;;;;;;;5014102;28;20216;-61
2022/06/09 07:25:37;;;;;;;10.30;1.80;;;;;;;;;;5014887;28;20312;-60
2022/06/09 07:28:03;;;;;;;6.72;1.63;;;;;;;;;;5013495;28;20258;-63
2022/06/09 07:30:28;;;;;;;5.13;1.48;;;;;;;;;;5014382;28;20243;-63
2022/06/09 07:32:54;;;;;;;7.10;1.23;;;;;;;;;;5012453;28;20264;-63
2022/06/09 07:35:21;;;;;;;6.07;1.30;;;;;;;;;;5032729;28;20204;-63
2022/06/09 07:37:46;;;;;;;6.30;1.23;;;;;;;;;;5034191;28;20690;-63
2022/06/09 07:40:12;;;;;;;9.80;1.50;;;;;;;;;;5032751;28;20295;-63
2022/06/09 07:42:37;;;;;;;4.05;1.10;;;;;;;;;;5034241;28;20702;-63
2022/06/09 07:45:03;;;;;;;6.68;1.40;;;;;;;;;;5013416;28;20216;-63
2022/06/09 07:47:29;;;;;;;37.28;3.00;;;;;;;;;;5013037;28;20216;-63
2022/06/09 07:49:54;;;;;;;73.22;5.85;;;;;;;;;;5013436;28;20223;-63
2022/06/09 07:52:19;;;;;;;6.70;1.27;;;;;;;;;;5013501;28;20208;-64
2022/06/09 07:54:44;;;;;;;17.83;1.83;;;;;;;;;;5013142;28;20318;-63
2022/06/09 07:57:11;;;;;;;13.05;1.65;;;;;;;;;;5013622;28;20216;-63
2022/06/09 07:59:36;;;;;;;13.07;1.98;;;;;;;;;;5013033;28;20208;-63
2022/06/09 08:02:03;;;;;;;7.68;1.50;;;;;;;;;;5012526;28;20739;-64
2022/06/09 08:04:28;;;;;;;65.57;4.70;;;;;;;;;;5013183;28;20267;-63
2022/06/09 08:06:54;;;;;;;7.22;2.00;;;;;;;;;;5013317;28;20212;-64
2022/06/09 08:09:19;;;;;;;15.55;1.90;;;;;;;;;;5010011;28;20208;-63
2022/06/09 08:11:45;;;;;;;6.22;1.58;;;;;;;;;;4994418;28;20224;-63
2022/06/09 08:14:10;;;;;;;6.40;1.52;;;;;;;;;;4993730;28;20216;-63
2022/06/09 08:16:36;;;;;;;8.90;1.77;;;;;;;;;;4993207;28;20578;-63
2022/06/09 08:19:01;;;;;;;4.82;1.20;;;;;;;;;;4993219;28;20302;-65
2022/06/09 08:21:27;;;;;;;16.38;1.73;;;;;;;;;;4993545;28;20228;-63
2022/06/09 08:23:52;;;;;;;11.07;1.55;;;;;;;;;;4993305;28;20217;-61
2022/06/09 08:26:18;;;;;;;6.38;1.77;;;;;;;;;;4993540;28;20221;-62
2022/06/09 08:28:43;;;;;;;8.48;1.20;;;;;;;;;;4994012;28;20220;-63
2022/06/09 08:31:08;;;;;;;12.85;2.00;;;;;;;;;;5001320;28;20236;-63
2022/06/09 08:33:35;;;;;;;4.93;1.33;;;;;;;;;;4998684;28;20279;-62
2022/06/09 08:36:00;;;;;;;5.13;1.10;;;;;;;;;;4992568;28;20217;-63
2022/06/09 08:38:26;;;;;;;5.78;1.60;;;;;;;;;;4993574;28;20212;-61
2022/06/09 08:40:54;;;;;;;8.82;1.63;;;;;;;;;;4993748;28;20224;-63
2022/06/09 08:43:32;;;;;;;13.48;1.90;;;;;;;;;;4993756;28;20201;-62
2022/06/09 08:45:57;;;;;;;14.65;1.80;;;;;;;;;;5006180;28;20216;-60
2022/06/09 08:48:24;;;;;;;13.85;1.98;;;;;;;;;;5002052;28;20302;-61
2022/06/09 08:50:49;;;;;;;17.80;2.13;;;;;;;;;;5012205;28;20220;-60
2022/06/09 08:53:15;;;;;;;8.32;1.95;;;;;;;;;;5003846;28;20216;-60
2022/06/09 08:55:41;;;;;;;7.90;2.05;;;;;;;;;;5007596;28;20208;-60
2022/06/09 08:58:13;;;;;;;7.03;2.00;;;;;;;;;;5010149;28;20323;-61
2022/06/09 09:00:40;;;;;;;7.60;2.05;;;;;;;;;;5012460;28;20453;-60
2022/06/09 09:03:09;;;;;;;8.10;2.05;;;;;;;;;;5011728;28;20299;-60
2022/06/09 09:05:37;;;;;;;20.05;2.97;;;;;;;;;;5010299;28;20299;-60
2022/06/09 09:08:02;;;;;;;9.57;2.20;;;;;;;;;;5010442;28;20570;-60
2022/06/09 09:10:35;;;;;;;8.75;2.50;;;;;;;;;;4992637;28;20208;-60
2022/06/09 09:13:21;;;;;;;5.72;2.20;;;;;;;;;;4990304;28;20213;-61
2022/06/09 09:15:51;;;;;;;9.80;2.58;;;;;;;;;;4991210;28;20216;-60
2022/06/09 09:18:35;;;;;;;13.30;2.78;;;;;;;;;;4990062;28;20220;-60
2022/06/09 09:21:05;;;;;;;7.13;2.33;;;;;;;;;;4992267;28;20326;-60
2022/06/09 09:23:41;;;;;;;5.25;1.80;;;;;;;;;;4991168;28;20301;-60
2022/06/09 09:26:06;;;;;;;15.27;2.47;;;;;;;;;;4990029;28;20240;-60
2022/06/09 09:28:35;;;;;;;18.52;2.40;;;;;;;;;;4992673;28;20564;-60
2022/06/09 09:31:03;;;;;;;12.45;1.55;;;;;;;;;;4990848;28;20209;-61
2022/06/09 09:33:29;;;;;;;29.70;2.30;;;;;;;;;;5010054;28;20663;-60
2022/06/09 09:36:00;;;;;;;6.47;1.60;;;;;;;;;;5011760;28;20266;-60
2022/06/09 09:38:29;;;;;;;5.00;0.95;;;;;;;;;;5011420;28;20200;-59
2022/06/09 09:40:58;;;;;;;10.60;1.30;;;;;;;;;;5009694;28;20212;-60
2022/06/09 09:43:24;;;;;;;14.50;2.10;;;;;;;;;;5008479;28;20235;-60
2022/06/09 09:45:50;;;;;;;10.55;1.40;;;;;;;;;;4992337;28;20580;-60
2022/06/09 09:48:16;;;;;;;8.57;1.13;;;;;;;;;;4990792;28;20232;-60
2022/06/09 09:50:51;;;;;;;6.38;1.63;;;;;;;;;;4991873;28;20700;-60
2022/06/09 09:53:18;;;;;;;6.43;1.48;;;;;;;;;;4990246;28;20237;-60
2022/06/09 09:55:51;;;;;;;5.35;1.20;;;;;;;;;;4991498;28;20228;-60
2022/06/09 09:58:19;;;;;;;26.85;2.45;;;;;;;;;;4991567;28;20241;-60
2022/06/09 10:00:44;;;;;;;4.57;1.20;;;;;;;;;;4991325;28;20220;-60
2022/06/09 10:08:46;;;;;;;5.60;1.20;;;;;;;;;;5004875;28;20271;-60
2022/06/09 10:14:31;;;;;;;9.57;2.00;;;;;;;;;;5009923;28;20343;-61
2022/06/09 10:16:56;;;;;;;43.58;3.28;;;;;;;;;;5010024;28;20213;-60
2022/06/09 10:19:23;;;;;;;22.50;2.38;;;;;;;;;;5011227;28;20537;-61
2022/06/09 10:21:48;;;;;;;19.77;2.00;;;;;;;;;;5010260;28;20220;-60
2022/06/09 10:24:14;;;;;;;17.92;1.92;;;;;;;;;;5010326;28;20208;-60
2022/06/09 10:26:39;;;;;;;10.30;1.73;;;;;;;;;;5011220;28;20256;-60
2022/06/09 10:29:16;;;;;;;12.93;1.70;;;;;;;;;;5010197;28;20216;-60
2022/06/09 10:31:42;;;;;;;8.27;1.42;;;;;;;;;;5004282;28;20205;-60
2022/06/09 10:34:17;;;;;;;7.07;1.73;;;;;;;;;;4991573;28;20218;-60
2022/06/09 10:36:42;;;;;;;5.78;1.60;;;;;;;;;;4990695;28;20731;-60
2022/06/09 10:39:23;;;;;;;6.18;1.52;;;;;;;;;;4990828;28;20215;-60
2022/06/09 10:41:51;;;;;;;8.02;1.55;;;;;;;;;;4990505;28;20614;-60
2022/06/09 10:44:21;;;;;;;8.27;1.70;;;;;;;;;;4999046;28;20688;-60
2022/06/09 10:55:14;;;;;;;7.90;1.63;;;;;;;;;;5009630;28;20216;-60
2022/06/09 10:55:25;;;;;;;10.40;1.65;;;;;;;;;;5009433;28;20604;-60
2022/06/09 10:58:00;;;;;;;9.75;1.70;;;;;;;;;;5009746;28;20287;-59
2022/06/09 11:00:28;;;;;;;15.57;2.40;;;;;;;;;;5009319;28;20269;-60
2022/06/09 11:02:54;;;;;;;100.07;5.80;;;;;;;;;;5011157;28;20216;-60
2022/06/09 11:05:20;;;;;;;13.32;1.80;;;;;;;;;;5009936;28;20262;-60
2022/06/09 11:07:51;;;;;;;9.73;2.17;;;;;;;;;;5009166;28;20219;-60
2022/06/09 11:10:23;;;;;;;5.50;1.58;;;;;;;;;;5008808;28;20209;-60
2022/06/09 11:13:11;;;;;;;7.75;1.65;;;;;;;;;;5009994;28;20227;-60
2022/06/09 11:15:38;;;;;;;6.13;1.50;;;;;;;;;;5009473;28;20315;-60
2022/06/09 11:18:04;;;;;;;14.10;2.20;;;;;;;;;;5008416;28;20219;-60
2022/06/09 11:20:47;;;;;;;8.35;1.90;;;;;;;;;;5010749;28;20587;-60
2022/06/09 11:23:13;;;;;;;22.55;2.60;;;;;;;;;;5010268;28;20561;-60
2022/06/09 11:25:49;;;;;;;11.20;1.67;;;;;;;;;;5010045;28;20227;-60
2022/06/09 11:28:14;;;;;;;8.45;1.60;;;;;;;;;;5009277;28;20656;-59
2022/06/09 11:30:46;;;;;;;16.48;2.20;;;;;;;;;;5010606;28;20232;-60
2022/06/09 11:33:22;;;;;;;7.22;1.58;;;;;;;;;;4991843;28;20273;-60
2022/06/09 11:35:50;;;;;;;19.58;2.08;;;;;;;;;;4992207;28;20216;-60
2022/06/09 11:38:19;;;;;;;8.90;1.70;;;;;;;;;;4993233;28;20221;-60
2022/06/09 11:40:47;;;;;;;4.20;1.10;;;;;;;;;;4992665;28;20216;-60
2022/06/09 11:43:34;;;;;;;11.18;1.48;;;;;;;;;;4995454;28;20201;-61
2022/06/09 11:46:00;;;;;;;13.30;1.65;;;;;;;;;;5011883;28;20216;-60
2022/06/09 11:48:31;;;;;;;13.30;1.52;;;;;;;;;;5012439;28;20710;-60
2022/06/09 11:50:56;;;;;;;8.10;1.23;;;;;;;;;;5014398;28;20209;-61
2022/06/09 11:53:23;;;;;;;6.65;1.10;;;;;;;;;;5011873;28;20214;-60
2022/06/09 11:55:58;;;;;;;6.30;1.08;;;;;;;;;;5012544;28;20296;-61
2022/06/09 11:58:45;;;;;;;11.05;1.48;;;;;;;;;;5013377;28;20234;-61
2022/06/09 12:01:10;;;;;;;6.20;1.15;;;;;;;;;;5012747;28;20216;-61
2022/06/09 12:03:41;;;;;;;5.70;1.02;;;;;;;;;;5014147;28;20239;-60
2022/06/09 12:06:12;;;;;;;18.70;1.30;;;;;;;;;;5012329;28;20216;-60
2022/06/09 12:08:41;;;;;;;14.73;1.80;;;;;;;;;;5011740;28;20254;-62
2022/06/09 12:11:08;;;;;;;10.05;1.27;;;;;;;;;;5011795;28;20219;-61
2022/06/09 12:13:35;;;;;;;8.95;1.45;;;;;;;;;;5012644;28;20267;-60
2022/06/09 12:16:02;;;;;;;6.90;1.08;;;;;;;;;;5011790;28;20205;-61
2022/06/09 12:18:29;;;;;;;4.90;0.90;;;;;;;;;;5012284;28;20216;-60
2022/06/09 12:21:01;;;;;;;8.20;1.40;;;;;;;;;;5006416;28;20692;-60
2022/06/09 12:23:27;;;;;;;6.45;1.10;;;;;;;;;;5004444;28;20297;-59
2022/06/09 12:26:09;;;;;;;4.53;0.95;;;;;;;;;;5033076;28;20219;-60
2022/06/09 12:28:42;;;;;;;12.93;1.60;;;;;;;;;;5032114;28;20228;-60
2022/06/09 12:31:09;;;;;;;17.17;2.50;;;;;;;;;;5023767;28;20299;-59
2022/06/09 12:33:35;;;;;;;10.65;1.30;;;;;;;;;;5011995;28;20735;-59
2022/06/09 12:36:02;;;;;;;13.13;1.40;;;;;;;;;;5010936;28;20303;-60
2022/06/09 12:38:33;;;;;;;14.98;1.38;;;;;;;;;;5011371;28;20266;-59
2022/06/09 12:41:00;;;;;;;8.43;1.55;;;;;;;;;;5012067;28;20228;-60
2022/06/09 12:43:26;;;;;;;8.05;1.35;;;;;;;;;;5008667;28;20606;-60
2022/06/09 12:46:00;;;;;;;11.38;1.40;;;;;;;;;;4991707;28;20233;-60
2022/06/09 12:48:27;;;;;;;11.10;1.27;;;;;;;;;;5000951;28;20248;-59
2022/06/09 12:50:52;;;;;;;7.30;1.27;;;;;;;;;;4992598;28;20217;-59
2022/06/09 12:53:19;;;;;;;5.57;1.10;;;;;;;;;;4991616;28;20243;-60
2022/06/09 12:55:49;;;;;;;8.32;1.20;;;;;;;;;;4993392;28;20264;-59
2022/06/09 12:58:15;;;;;;;8.73;1.13;;;;;;;;;;4990830;28;20252;-60
2022/06/09 13:00:42;;;;;;;7.93;1.17;;;;;;;;;;4992908;28;20943;-59
2022/06/09 13:03:21;;;;;;;8.63;1.23;;;;;;;;;;4991292;28;20684;-59
2022/06/09 13:05:46;;;;;;;6.43;1.00;;;;;;;;;;4991924;28;20213;-60
2022/06/09 13:08:14;;;;;;;14.52;1.50;;;;;;;;;;5002049;28;20223;-60
2022/06/09 13:10:40;;;;;;;8.55;1.17;;;;;;;;;;4998586;28;20303;-60
2022/06/09 13:13:07;;;;;;;7.05;1.23;;;;;;;;;;4991247;28;20288;-60
2022/06/09 13:15:33;;;;;;;7.80;1.33;;;;;;;;;;4991749;28;20276;-60
2022/06/09 13:18:00;;;;;;;9.32;1.60;;;;;;;;;;4992005;28;20643;-59
2022/06/09 13:20:25;;;;;;;81.18;6.38;;;;;;;;;;5000655;28;20220;-59
2022/06/09 13:22:51;;;;;;;15.20;1.40;;;;;;;;;;4992956;28;20620;-59
2022/06/09 13:25:19;;;;;;;5.28;0.95;;;;;;;;;;4990491;28;20209;-60
2022/06/09 13:27:45;;;;;;;7.07;1.35;;;;;;;;;;4991366;28;20308;-59
2022/06/09 13:30:29;;;;;;;6.05;1.00;;;;;;;;;;4992121;28;20217;-59
2022/06/09 13:32:55;;;;;;;10.73;1.38;;;;;;;;;;5007321;28;20224;-59
2022/06/09 13:35:26;;;;;;;6.15;1.02;;;;;;;;;;5011869;28;20223;-59
2022/06/09 13:38:00;;;;;;;8.25;1.15;;;;;;;;;;5012045;28;20303;-60
2022/06/09 13:40:25;;;;;;;11.13;1.40;;;;;;;;;;5010808;28;20208;-60
2022/06/09 13:42:52;;;;;;;6.45;1.13;;;;;;;;;;5012013;28;20216;-59
2022/06/09 13:45:19;;;;;;;15.93;2.47;;;;;;;;;;4993034;28;20209;-58
2022/06/09 13:48:04;;;;;;;6.07;1.20;;;;;;;;;;5008272;28;20228;-61
2022/06/09 13:50:33;;;;;;;15.75;1.48;;;;;;;;;;4974888;28;20215;-62
2022/06/09 13:53:17;;;;;;;5.88;1.10;;;;;;;;;;5016143;28;20212;-64
2022/06/09 13:55:43;;;;;;;8.40;1.23;;;;;;;;;;5030955;28;20243;-64
2022/06/09 13:58:08;;;;;;;5.80;1.15;;;;;;;;;;5029969;28;20270;-65
2022/06/09 14:00:39;;;;;;;4.05;0.85;;;;;;;;;;5002581;28;20216;-65
2022/06/09 14:03:05;;;;;;;8.45;1.60;;;;;;;;;;5009988;28;20216;-64
2022/06/09 14:05:32;;;;;;;10.45;1.40;;;;;;;;;;5011513;28;20211;-64
2022/06/09 14:07:58;;;;;;;8.63;1.42;;;;;;;;;;5001386;28;20229;-63
2022/06/09 14:10:24;;;;;;;6.63;1.50;;;;;;;;;;4991238;28;20220;-63
2022/06/09 14:12:49;;;;;;;14.70;1.83;;;;;;;;;;4992140;28;20213;-62
2022/06/09 14:15:14;;;;;;;15.90;1.65;;;;;;;;;;4989739;28;20213;-64
2022/06/09 14:17:40;;;;;;;4.60;1.60;;;;;;;;;;4991947;28;20217;-63
2022/06/09 14:20:05;;;;;;;33.55;2.58;;;;;;;;;;4989897;28;20219;-63
2022/06/09 14:22:31;;;;;;;16.25;1.70;;;;;;;;;;4990739;28;20615;-63
2022/06/09 14:24:56;;;;;;;10.82;1.42;;;;;;;;;;4991680;28;20728;-63
2022/06/09 14:27:21;;;;;;;10.90;1.40;;;;;;;;;;4991437;28;22157;-63
2022/06/09 14:29:47;;;;;;;6.05;1.20;;;;;;;;;;4990918;28;20217;-63
2022/06/09 14:32:14;;;;;;;19.98;2.10;;;;;;;;;;4997956;28;20204;-63
2022/06/09 14:34:39;;;;;;;7.20;1.50;;;;;;;;;;5003302;28;20216;-62
2022/06/09 14:37:05;;;;;;;5.18;1.45;;;;;;;;;;5009657;28;20216;-63
2022/06/09 14:39:30;;;;;;;8.27;1.33;;;;;;;;;;5011192;28;20204;-64
2022/06/09 14:41:55;;;;;;;12.50;1.70;;;;;;;;;;5010747;28;20251;-63
2022/06/09 14:44:20;;;;;;;5.80;1.30;;;;;;;;;;5000034;28;20220;-63
2022/06/09 14:46:46;;;;;;;6.25;1.38;;;;;;;;;;4991871;28;20212;-64
2022/06/09 14:49:18;;;;;;;8.52;1.50;;;;;;;;;;4989997;28;20567;-63
2022/06/09 14:51:44;;;;;;;7.45;1.27;;;;;;;;;;4990062;28;20217;-64
2022/06/09 14:54:10;;;;;;;8.65;1.33;;;;;;;;;;4991068;28;20723;-64
2022/06/09 14:56:36;;;;;;;9.18;1.40;;;;;;;;;;4991100;28;20582;-64
2022/06/09 14:59:02;;;;;;;13.70;1.45;;;;;;;;;;4990009;28;20237;-62